createdAt,value
2017-12-16T12:36:05.572Z,8.67
2017-12-16T12:38:34.370Z,13.77
2017-12-16T12:41:03.170Z,10.83
2017-12-16T13:47:36.661Z,10.80
2017-12-16T13:50:23.267Z,7.40
2017-12-16T14:57:48.719Z,6.20
2017-12-16T15:00:17.518Z,11.03
2017-12-16T16:58:38.817Z,19.90
2017-12-16T17:01:06.329Z,12.10
2017-12-16T17:03:33.818Z,21.00
2017-12-16T17:06:01.349Z,16.50
2017-12-16T17:08:28.840Z,13.20
2017-12-16T17:10:56.283Z,14.13
2017-12-16T17:13:23.739Z,14.00
2017-12-16T17:15:51.230Z,17.07
2017-12-16T17:18:18.679Z,15.90
2017-12-16T17:20:46.166Z,25.57
2017-12-16T17:23:13.623Z,16.02
2017-12-16T17:25:41.121Z,17.10
2017-12-16T17:28:08.609Z,21.90
2017-12-16T17:30:36.835Z,17.47
2017-12-16T17:33:04.350Z,18.00
2017-12-16T17:35:31.794Z,20.83
2017-12-16T17:37:59.244Z,19.77
2017-12-16T17:40:27.520Z,15.57
2017-12-16T17:42:55.776Z,26.00
2017-12-16T17:45:23.275Z,9.93
2017-12-16T17:47:50.753Z,15.10
2017-12-16T17:50:18.210Z,12.10
2017-12-16T17:52:45.659Z,13.90
2017-12-16T17:55:14.470Z,12.48
2017-12-16T17:57:41.964Z,19.77
2017-12-16T18:00:10.819Z,10.98
2017-12-16T18:02:38.328Z,12.80
2017-12-16T18:05:07.764Z,13.50
2017-12-16T18:07:35.251Z,15.60
2017-12-16T18:10:02.764Z,14.60
2017-12-16T18:12:30.241Z,12.77
2017-12-16T18:14:57.687Z,9.83
2017-12-16T18:17:25.139Z,17.70
2017-12-16T18:19:52.597Z,9.47
2017-12-16T18:22:20.103Z,12.20
2017-12-16T18:24:48.392Z,10.23
2017-12-16T18:27:16.608Z,17.47
2017-12-16T18:29:44.108Z,12.53
2017-12-16T18:32:12.378Z,13.53
2017-12-16T18:34:39.883Z,14.83
2017-12-16T18:37:07.713Z,10.67
2017-12-16T18:39:35.983Z,5.53
2017-12-16T18:42:04.264Z,9.90
2017-12-16T18:44:32.568Z,20.60
2017-12-16T18:47:00.059Z,14.30
2017-12-16T18:49:27.547Z,12.73
2017-12-16T18:51:55.802Z,8.97
2017-12-16T18:54:23.275Z,13.43
2017-12-16T18:56:51.503Z,9.43
2017-12-16T18:59:18.947Z,15.83
2017-12-16T19:01:46.454Z,24.97
2017-12-16T19:04:13.945Z,27.97
2017-12-16T19:06:41.439Z,18.50
2017-12-16T19:09:08.934Z,31.33
2017-12-16T19:11:36.439Z,25.20
2017-12-16T19:14:03.942Z,20.03
2017-12-16T19:24:47.840Z,2.90
2017-12-16T19:57:16.531Z,22.70
2017-12-16T19:59:43.987Z,24.33
2017-12-16T20:02:11.674Z,26.50
2017-12-16T20:04:39.177Z,22.27
2017-12-16T20:07:07.218Z,25.60
2017-12-16T20:09:36.366Z,22.10
2017-12-16T20:12:03.823Z,18.27
2017-12-16T20:14:31.465Z,19.23
2017-12-16T20:16:58.982Z,18.57
2017-12-16T20:19:27.190Z,23.27
2017-12-16T20:21:54.989Z,19.23
2017-12-16T20:24:22.551Z,18.90
2017-12-16T20:26:50.706Z,20.90
2017-12-16T20:29:18.211Z,24.93
2017-12-16T20:31:47.368Z,21.30
2017-12-16T20:34:14.934Z,24.87
2017-12-16T20:36:42.474Z,22.70
2017-12-16T20:39:09.995Z,21.30
2017-12-16T20:41:37.494Z,24.57
2017-12-16T20:44:05.002Z,21.10
2017-12-16T20:46:34.294Z,23.30
2017-12-16T20:49:02.633Z,19.80
2017-12-16T20:51:30.863Z,25.53
2017-12-16T20:53:58.487Z,23.03
2017-12-16T20:56:25.994Z,26.10
2017-12-16T20:58:53.506Z,25.90
2017-12-16T21:01:20.998Z,22.20
2017-12-16T21:03:48.515Z,26.90
2017-12-16T21:06:16.096Z,24.37
2017-12-16T21:08:43.608Z,34.60
2017-12-16T21:11:11.092Z,38.47
2017-12-16T21:13:44.586Z,56.97
2017-12-16T21:16:12.078Z,41.77
2017-12-16T21:18:39.788Z,27.77
2017-12-16T21:21:07.298Z,27.60
2017-12-16T21:23:34.802Z,31.73
2017-12-16T21:26:02.314Z,39.37
2017-12-16T21:28:29.824Z,28.70
2017-12-16T21:30:57.315Z,23.90
2017-12-16T21:33:25.585Z,26.63
2017-12-16T21:35:53.852Z,21.13
2017-12-16T21:38:22.135Z,20.47
2017-12-16T21:40:50.394Z,22.50
2017-12-16T21:43:17.891Z,21.90
2017-12-16T21:45:45.390Z,21.93
2017-12-16T21:48:12.907Z,24.03
2017-12-16T21:50:40.406Z,20.87
2017-12-16T21:53:08.042Z,21.23
2017-12-16T21:55:36.297Z,25.53
2017-12-16T21:58:03.813Z,22.20
2017-12-16T22:00:31.314Z,20.10
2017-12-16T22:02:58.810Z,18.93
2017-12-16T22:05:26.319Z,19.97
2017-12-16T22:07:53.806Z,22.30
2017-12-16T22:10:21.302Z,27.93
2017-12-16T22:12:50.186Z,25.47
2017-12-16T22:15:18.948Z,28.27
2017-12-16T22:17:46.510Z,24.40
2017-12-16T22:20:14.075Z,23.00
2017-12-16T22:22:41.598Z,22.20
2017-12-16T22:25:09.991Z,24.50
2017-12-16T22:27:38.324Z,17.73
2017-12-16T22:30:06.690Z,19.93
2017-12-16T22:32:34.173Z,18.40
2017-12-16T22:35:01.747Z,16.67
2017-12-16T22:37:29.181Z,20.77
2017-12-16T22:39:57.454Z,20.20
2017-12-16T22:42:24.956Z,21.30
2017-12-16T22:44:52.456Z,17.93
2017-12-16T22:47:20.714Z,15.90
2017-12-16T22:49:48.194Z,16.13
2017-12-16T22:52:15.684Z,13.70
2017-12-16T22:54:43.179Z,17.43
2017-12-16T22:57:10.737Z,17.33
2017-12-16T22:59:38.182Z,19.97
2017-12-16T23:02:05.656Z,19.97
2017-12-16T23:04:33.158Z,23.50
2017-12-16T23:07:00.636Z,16.40
2017-12-16T23:09:28.134Z,19.00
2017-12-16T23:11:55.620Z,18.20
2017-12-16T23:14:23.124Z,16.80
2017-12-16T23:16:50.611Z,19.60
2017-12-16T23:19:18.889Z,19.20
2017-12-16T23:21:47.151Z,19.27
2017-12-16T23:24:14.644Z,21.87
2017-12-16T23:26:42.138Z,16.43
2017-12-16T23:29:09.621Z,14.87
2017-12-16T23:31:37.119Z,14.77
2017-12-16T23:34:04.555Z,17.80
2017-12-16T23:36:32.766Z,16.90
2017-12-16T23:39:00.268Z,14.93
2017-12-16T23:41:27.750Z,16.20
2017-12-16T23:43:55.187Z,13.60
2017-12-16T23:46:22.698Z,13.67
2017-12-16T23:48:50.176Z,14.33
2017-12-16T23:51:17.668Z,20.00
2017-12-16T23:53:45.871Z,20.60
2017-12-16T23:56:13.367Z,15.63
2017-12-16T23:58:40.807Z,20.30
